Ulsteinvik  Ulsteinvik


Beaufortskalaen  Beaufortskalaen


Air quality index  Air quality index


Nedbørsradar more information rain snow radar


Ingen spesiell oppmerksomhet om været er nødvendig.    Det er ingen advarsler

Nære METAR rapporter

   
ENAL - Ålesund
oppdatert: 17-06-2019 17:20
Lett regn, For det meste skyet  
Lett regn, For det meste skyet  
   Vind: VNV 2.6 m/s
Vind: VNV 2.6 m/s
Temperatur: 14°C
Duggpunkt: 11°C
Fuktighet: 82%
Barometer: 1010 hPa
Skyer: For det meste skyet
Sikt: More than 10 km
Skydetaljer: få skyer 365.8 m,
For det meste skyet 2072.6 m
ENAL 171520Z 29005KT 260V340 9999 -RA FEW012 BKN068 14/11 Q1010
ENOV - Ørsta
oppdatert: 17-06-2019 16:50
Regn i nærheten, For det meste skyet  
Regn i nærheten, For det meste skyet  
   Vind: varierer 1.5 m/s
Vind: varierer 1.5 m/s
Temperatur: 15°C
Duggpunkt: 10°C
Fuktighet: 72%
Barometer: 1010 hPa
Skyer: For det meste skyet
Sikt: More than 10 km
Skydetaljer: få skyer 1676.4 m,
For det meste skyet 1889.8 m
ENOV 171450Z VRB03KT 9999 VCSH FEW055 BKN062 15/10 Q1010 RMK WIND 2175FT 15018KT
ENML - Tafjorden
oppdatert: 17-06-2019 16:50
Delvis Skyet  
Delvis Skyet  
   Vind: varierer 1.5 m/s
Vind: varierer 1.5 m/s
Temperatur: 20°C
Duggpunkt: 12°C
Fuktighet: 60%
Barometer: 1009 hPa
Skyer: Delvis Skyet
Sikt: More than 10 km
Skydetaljer: få skyer 1524 m,
Delvis Skyet 2438.4 m
ENML 171450Z VRB03KT 9999 FEW050 SCT080 20/12 Q1009
ENML - Molde
oppdatert: 17-06-2019 16:50
Delvis Skyet  
Delvis Skyet  
   Vind: varierer 1.5 m/s
Vind: varierer 1.5 m/s
Temperatur: 20°C
Duggpunkt: 12°C
Fuktighet: 60%
Barometer: 1009 hPa
Skyer: Delvis Skyet
Sikt: More than 10 km
Skydetaljer: få skyer 1524 m,
Delvis Skyet 2438.4 m
ENML 171450Z VRB03KT 9999 FEW050 SCT080 20/12 Q1009
ENFL - Florø
oppdatert: 17-06-2019 16:50
Regn, For det meste skyet  
Regn, For det meste skyet  
   Vind: Sør 7.2 m/s
Vind: Sør 7.2 m/s
Temperatur: 13°C
Duggpunkt: 11°C
Fuktighet: 88%
Barometer: 1010 hPa
Skyer: For det meste skyet
Sikt: 9 km
Skydetaljer: få skyer 243.8 m,
For det meste skyet 304.8 m
ENFL 171450Z 17014KT 9000 RA FEW008 BKN010 13/11 Q1010
ENVA - Trondheim
oppdatert: 17-06-2019 17:20
Klart  
Klart  
   Vind: ØNØ 2.1 m/s
Vind: ØNØ 2.1 m/s
Temperatur: 18°C
Duggpunkt: 7°C
Fuktighet: 49%
Barometer: 1012 hPa
Sikt: More than 10 km
Skydetaljer: Klart
ENVA 171520Z 07004KT 360V160 CAVOK 18/07 Q1012 NOSIG RMK WIND 670FT 07006KT
ENBR - Bergen
oppdatert: 17-06-2019 17:20
Lett yr, For det meste skyet  
Lett yr, For det meste skyet  
   Vind: Sør 9.8 m/s
Vind: Sør 9.8 m/s
Temperatur: 13°C
Duggpunkt: 12°C
Fuktighet: 94%
Barometer: 1012 hPa
Skyer: For det meste skyet
Sikt: 9 km
Skydetaljer: Delvis Skyet 152.4 m,
For det meste skyet 243.8 m
ENBR 171520Z 18019KT 9000 -DZ SCT005 BKN008 13/12 Q1012 TEMPO 3000 DZRA BR BKN005 RMK WIND 1200FT 17022KT
ENZV - Stavanger
oppdatert: 17-06-2019 17:20
For det meste skyet  
For det meste skyet  
   Vind: Sør 6.2 m/s
Vind: Sør 6.2 m/s
Temperatur: 14°C
Duggpunkt: 12°C
Fuktighet: 88%
Barometer: 1014 hPa
Skyer: For det meste skyet
Sikt: More than 10 km
Skydetaljer: For det meste skyet 304.8 m
ENZV 171520Z 17012KT 9999 BKN010 14/12 Q1014 TEMPO BKN007
ENGM - Oslo
oppdatert: 17-06-2019 17:20
Delvis Skyet  
Delvis Skyet  
   Vind: SSV 6.7 m/s
Vind: SSV 6.7 m/s
Temperatur: 20°C
Duggpunkt: 10°C
Fuktighet: 53%
Barometer: 1014 hPa
Skyer: Delvis Skyet
Sikt: More than 10 km
Skydetaljer: Delvis Skyet 1188.7 m,
Delvis Skyet 1950.7 m
ENGM 171520Z 20013KT 160V250 9999 SCT039 SCT064 20/10 Q1014 NOSIG
ESSA - Stockholm
oppdatert: 17-06-2019 17:20
Klart  
Klart  
   Vind: VSV 10.8 m/s
Vind: VSV 10.8 m/s
Temperatur: 21°C
Duggpunkt: 8°C
Fuktighet: 43%
Barometer: 1014 hPa
Sikt: More than 10 km
Skydetaljer: Klart
ESSA 171520Z 24021KT CAVOK 21/08 Q1014 NOSIG
EKCH - København
oppdatert: 17-06-2019 17:20
Delvis Skyet  
Delvis Skyet  
   Vind: Sør 5.7 m/s
Vind: Sør 5.7 m/s
Temperatur: 19°C
Duggpunkt: 14°C
Fuktighet: 73%
Barometer: 1021 hPa
Skyer: Delvis Skyet
Sikt: More than 10 km
Skydetaljer: Delvis Skyet 1889.8 m
EKCH 171520Z AUTO 19011KT 9999 SCT062/// 19/14 Q1021 NOSIG
ENHV - Nordkapp
oppdatert: 17-06-2019 16:20
For det meste skyet  
For det meste skyet  
   Vind: VNV 7.7 m/s
Vind: VNV 7.7 m/s
Temperatur: 6°C
Wind Chill: 2°C
Duggpunkt: 2°C
Fuktighet: 76%
Barometer: 1011 hPa
Skyer: For det meste skyet
Sikt: More than 10 km
Skydetaljer: For det meste skyet 579.1 m
ENHV 171420Z 29015KT 9999 BKN019 06/02 Q1011
ENSB - Svalbard
oppdatert: 17-06-2019 16:50
For det meste skyet  
For det meste skyet  
   Vind: VSV 2.6 m/s
Vind: VSV 2.6 m/s
Temperatur: 5°C
Wind Chill: 3°C
Duggpunkt: 0°C
Fuktighet: 70%
Barometer: 1010 hPa
Skyer: For det meste skyet
Sikt: More than 10 km
Skydetaljer: få skyer 304.8 m,
For det meste skyet 3352.8 m
ENSB 171450Z 25005KT 9999 FEW010 BKN110 05/M00 Q1010 RMK WIND 1400FT 31005KT
NZSP - Sørpolen
oppdatert: 17-06-2019 13:50
Ikkje oppdatert
Blowing, Snø, Overskyet  
Blowing, Snø, Overskyet  
   Vind: NNØ 8.7 m/s<br />Gust to 8.7 m/s
Vind: NNØ 8.7 m/s
Gust to 8.7 m/s
Temperatur: -64°C
Wind Chill: -91°C
Barometer: 945.8 hPa
Skyer: Overskyet
Sikt: 0.8 km
Skydetaljer: For det meste skyet,
Overskyet 304.8 m
NZSP 171150Z 02017G21KT 0800 BLSN BKN000 OVC010 M64/ A2793 RMK BLSN BKN000 CLN AIR 02021KT ALL WNDS GRID
 

Script utviklet av  Saratoga-weather.org Tilrettelagt for malen av  Weerstation Leuven

Utstyr vi bruker:

Værstsjon
Davis VP2+ 24/H Fars, Online-Ups, 4G Backup.

Værprogram
Weather Display

Ekstra utstyr
Custom builds pcs

Provider
Hosted By Pro Isp

Davis VP2+ 24/H Fars, Online-Ups, 4G Backup.

Weather Display

Custom builds pcs

Hosted By Pro Isp